Impacts TAF Board
For situational awareness. Not to be used for flight planning purposes.
IDs:

KIAD - Washington/Dulles In, VA, US

Issued at 1439 UTC 01 Mar 2021
Updated at 1716 UTC 01 Mar 2021
Potential Impact None Slight Moderate High
Time1652Z 01/18Z 01/19Z 01/20Z 01/21Z 01/22Z 01/23Z 02/00Z 02/01Z 02/02Z 02/03Z 02/04Z 02/05Z 02/06Z>>
Type OBS PRVL PRVL PRVL PRVL PRVL PRVL PRVL PRVL PRVL PRVL PRVL PRVL PRVL
VIS 5 >6 >6 >6 >6 >6 >6 >6 >6 >6 >6 >6 >6 >6
CIG 22 70 70 70 250 250 -- -- -- -- -- -- -- --
Cover OVC OVC OVC OVC BKN BKN SCT SCT SCT SCT SCT SCT SCT SCT
FltCat MVFR VFR VFR VFR VFR VFR VFR VFR VFR VFR VFR VFR VFR VFR
WX -RA -- -- -- -- -- -- -- -- -- -- -- -- --
WDir 310 320 320 320 310 310 310 310 310 310 310 310 310 310
WSpd 20 18 18 18 19 19 16 16 16 16 16 16 16 16
WGst 29 36 36 36 40 40 40 40 40 40 40 40 40 40
Raw TAF
KIAD 011439Z 0115/0218 29009KT 5SM BR SCT010 OVC035
  FM011600 32015G31KT P6SM SCT030 OVC060
  FM011700 32018G36KT P6SM SCT050 OVC070
  FM012100 31019G40KT P6SM SCT045 BKN250
  FM012300 31016G40KT P6SM SCT250
  FM021000 33013G26KT P6SM FEW250


Raw METAR
KIAD 011652Z 31020G29KT 5SM -RA SCT012 BKN022 OVC033 10/07 A2981 RMK AO2 PK WND 31029/1652 RAE16B30 PRESRR SLP094 P0000 T01000067
KIAD 011646Z 31019G26KT 5SM -RA BR SCT012 BKN022 OVC033 09/08 A2980 RMK AO2 PK WND 33026/1645 RAE16B30 P0000
KIAD 011623Z 34014G20KT 5SM BR FEW007 BKN012 OVC035 10/08 A2977 RMK AO2 RAE16 P0000 T01000083
KIAD 011552Z 30012KT 5SM -RA BR FEW007 BKN034 OVC043 11/09 A2976 RMK AO2 PK WND 31026/1523 RAB28 SLP079 P0001 T01060089
KIAD 011525Z 31011G26KT 5SM BR FEW004 BKN035 OVC050 09/09 A2976 RMK AO2 PK WND 31026/1523 PRESRR T00940089
KIAD 011452Z 18005KT 5SM BR FEW004 BKN049 09/08 A2972 RMK AO2 SLP065 60005 T00890083 55006
KIAD 011433Z 16003KT 5SM BR SCT004 BKN050 OVC110 09/08 A2973 RMK AO2 T00890083

METAR Board
Radar Display
Forecast Discussion
For situational awareness. Not to be used for flight planning purposes.